Dwight, Illinois
Current Conditions -  °F | °C
As of 11:55 AM on Sunday 21 Dec 2014 (Local Time) from KPNT Reporting Station
Overcast Overcast  
Wind Chill: 29°   Ceiling: 3500
Heat Index: 38°   Visibility: 7mi
Dew Point: 32°   Wind: 14mph
Humidity: 81%   Direction: 170°S
Pressure: 30.16"   Gusts: NA
Location:  41.09°N, 88.43°W
Report Text: KPNT 211755Z AUTO 17012KT 7SM OVC035 03/00 A3016 RMK AO2 T00310001 10031 20007
Loading
Personal Weather Stations






























Interactive Weather Map New forecast layout! Learn more

10-Day Weather Forecast

Advertisements
Track Severe Weather on mobile